sensor_id;sensor_type;location;lat;lon;timestamp;P1;durP1;ratioP1;P2;durP2;ratioP2
70008;SDS011;59542;37.950;-122.338;2022-12-01T00:00:06;1.48;;;0.30;;
70008;SDS011;59542;37.950;-122.338;2022-12-01T00:02:32;1.30;;;0.38;;
70008;SDS011;59542;37.950;-122.338;2022-12-01T00:04:58;3.42;;;0.60;;
70008;SDS011;59542;37.950;-122.338;2022-12-01T00:07:25;0.73;;;0.50;;
70008;SDS011;59542;37.950;-122.338;2022-12-01T00:09:51;1.65;;;0.38;;
70008;SDS011;59542;37.950;-122.338;2022-12-01T00:12:36;3.40;;;0.30;;
70008;SDS011;59542;37.950;-122.338;2022-12-01T00:15:08;1.48;;;0.50;;
70008;SDS011;59542;37.950;-122.338;2022-12-01T00:17:36;1.08;;;0.70;;
70008;SDS011;59542;37.950;-122.338;2022-12-01T00:20:02;0.90;;;0.45;;
70008;SDS011;59542;37.950;-122.338;2022-12-01T00:22:30;2.30;;;0.40;;
70008;SDS011;59542;37.950;-122.338;2022-12-01T00:24:56;0.95;;;0.40;;
70008;SDS011;59542;37.950;-122.338;2022-12-01T00:27:22;1.42;;;0.50;;
70008;SDS011;59542;37.950;-122.338;2022-12-01T00:29:49;2.88;;;0.55;;
70008;SDS011;59542;37.950;-122.338;2022-12-01T00:32:15;2.65;;;0.80;;
70008;SDS011;59542;37.950;-122.338;2022-12-01T00:34:41;1.02;;;0.40;;
70008;SDS011;59542;37.950;-122.338;2022-12-01T00:37:07;1.05;;;0.32;;
70008;SDS011;59542;37.950;-122.338;2022-12-01T00:39:33;3.88;;;0.55;;
70008;SDS011;59542;37.950;-122.338;2022-12-01T00:41:59;1.88;;;0.50;;
70008;SDS011;59542;37.950;-122.338;2022-12-01T00:44:26;2.33;;;0.50;;
70008;SDS011;59542;37.950;-122.338;2022-12-01T00:46:52;1.40;;;0.50;;
70008;SDS011;59542;37.950;-122.338;2022-12-01T00:49:18;2.25;;;0.55;;
70008;SDS011;59542;37.950;-122.338;2022-12-01T00:51:44;2.83;;;0.60;;
70008;SDS011;59542;37.950;-122.338;2022-12-01T00:54:10;1.70;;;0.50;;
70008;SDS011;59542;37.950;-122.338;2022-12-01T00:56:37;1.95;;;0.70;;
70008;SDS011;59542;37.950;-122.338;2022-12-01T00:59:03;1.15;;;0.52;;
70008;SDS011;59542;37.950;-122.338;2022-12-01T01:01:29;3.55;;;0.80;;
70008;SDS011;59542;37.950;-122.338;2022-12-01T01:03:56;4.65;;;0.80;;
70008;SDS011;59542;37.950;-122.338;2022-12-01T01:06:23;0.75;;;0.40;;
70008;SDS011;59542;37.950;-122.338;2022-12-01T01:08:49;0.95;;;0.40;;
70008;SDS011;59542;37.950;-122.338;2022-12-01T01:11:15;2.50;;;0.57;;
70008;SDS011;59542;37.950;-122.338;2022-12-01T01:13:42;0.73;;;0.70;;
70008;SDS011;59542;37.950;-122.338;2022-12-01T01:16:26;2.45;;;0.70;;
70008;SDS011;59542;37.950;-122.338;2022-12-01T01:18:52;3.42;;;1.00;;
70008;SDS011;59542;37.950;-122.338;2022-12-01T01:21:20;3.25;;;0.50;;
70008;SDS011;59542;37.950;-122.338;2022-12-01T01:23:50;4.28;;;0.80;;
70008;SDS011;59542;37.950;-122.338;2022-12-01T01:26:19;5.10;;;0.82;;
70008;SDS011;59542;37.950;-122.338;2022-12-01T01:28:48;5.25;;;0.68;;
70008;SDS011;59542;37.950;-122.338;2022-12-01T01:31:17;2.10;;;0.70;;
70008;SDS011;59542;37.950;-122.338;2022-12-01T01:33:46;1.48;;;0.82;;
70008;SDS011;59542;37.950;-122.338;2022-12-01T01:36:13;2.53;;;0.90;;
70008;SDS011;59542;37.950;-122.338;2022-12-01T01:38:41;1.67;;;0.90;;
70008;SDS011;59542;37.950;-122.338;2022-12-01T01:41:07;2.95;;;1.10;;
70008;SDS011;59542;37.950;-122.338;2022-12-01T01:46:32;4.30;;;0.73;;
70008;SDS011;59542;37.950;-122.338;2022-12-01T01:49:01;3.47;;;0.70;;
70008;SDS011;59542;37.950;-122.338;2022-12-01T01:51:39;3.33;;;0.70;;
70008;SDS011;59542;37.950;-122.338;2022-12-01T01:54:21;2.88;;;0.68;;
70008;SDS011;59542;37.950;-122.338;2022-12-01T01:56:58;3.22;;;0.88;;
70008;SDS011;59542;37.950;-122.338;2022-12-01T01:59:30;2.42;;;0.90;;
70008;SDS011;59542;37.950;-122.338;2022-12-01T02:02:18;2.40;;;1.20;;
70008;SDS011;59542;37.950;-122.338;2022-12-01T02:04:45;3.92;;;1.17;;
70008;SDS011;59542;37.950;-122.338;2022-12-01T02:07:14;2.25;;;0.90;;
70008;SDS011;59542;37.950;-122.338;2022-12-01T02:09:42;3.42;;;1.00;;
70008;SDS011;59542;37.950;-122.338;2022-12-01T02:20:13;2.40;;;0.85;;
70008;SDS011;59542;37.950;-122.338;2022-12-01T02:31:10;5.00;;;1.88;;
70008;SDS011;59542;37.950;-122.338;2022-12-01T02:36:50;3.00;;;1.10;;
70008;SDS011;59542;37.950;-122.338;2022-12-01T02:39:57;6.70;;;1.30;;
70008;SDS011;59542;37.950;-122.338;2022-12-01T02:42:36;2.78;;;0.90;;
70008;SDS011;59542;37.950;-122.338;2022-12-01T02:45:40;3.47;;;1.10;;
70008;SDS011;59542;37.950;-122.338;2022-12-01T02:48:34;3.38;;;0.90;;
70008;SDS011;59542;37.950;-122.338;2022-12-01T02:51:07;4.75;;;0.98;;
70008;SDS011;59542;37.950;-122.338;2022-12-01T02:53:44;1.67;;;0.88;;
70008;SDS011;59542;37.950;-122.338;2022-12-01T02:56:11;3.00;;;1.25;;
70008;SDS011;59542;37.950;-122.338;2022-12-01T02:58:42;1.75;;;1.00;;
70008;SDS011;59542;37.950;-122.338;2022-12-01T03:12:58;2.80;;;0.98;;
70008;SDS011;59542;37.950;-122.338;2022-12-01T03:18:31;2.75;;;1.05;;
70008;SDS011;59542;37.950;-122.338;2022-12-01T03:23:56;3.50;;;1.02;;
70008;SDS011;59542;37.950;-122.338;2022-12-01T03:26:28;2.15;;;0.90;;
70008;SDS011;59542;37.950;-122.338;2022-12-01T03:29:31;3.75;;;1.27;;
70008;SDS011;59542;37.950;-122.338;2022-12-01T03:31:53;2.88;;;1.10;;
70008;SDS011;59542;37.950;-122.338;2022-12-01T03:37:28;4.60;;;1.63;;
70008;SDS011;59542;37.950;-122.338;2022-12-01T03:39:56;6.70;;;1.27;;
70008;SDS011;59542;37.950;-122.338;2022-12-01T03:42:26;4.18;;;1.33;;
70008;SDS011;59542;37.950;-122.338;2022-12-01T03:44:57;3.17;;;1.33;;
70008;SDS011;59542;37.950;-122.338;2022-12-01T03:47:29;3.03;;;1.45;;
70008;SDS011;59542;37.950;-122.338;2022-12-01T03:50:01;6.22;;;1.35;;
70008;SDS011;59542;37.950;-122.338;2022-12-01T03:52:38;4.22;;;1.33;;
70008;SDS011;59542;37.950;-122.338;2022-12-01T04:00:21;5.25;;;1.50;;
70008;SDS011;59542;37.950;-122.338;2022-12-01T04:02:55;7.75;;;1.42;;
70008;SDS011;59542;37.950;-122.338;2022-12-01T04:05:23;1.52;;;1.02;;
70008;SDS011;59542;37.950;-122.338;2022-12-01T04:07:50;2.83;;;1.10;;
70008;SDS011;59542;37.950;-122.338;2022-12-01T04:10:16;4.82;;;1.45;;
70008;SDS011;59542;37.950;-122.338;2022-12-01T04:12:43;3.20;;;1.23;;
70008;SDS011;59542;37.950;-122.338;2022-12-01T04:15:09;5.75;;;1.77;;
70008;SDS011;59542;37.950;-122.338;2022-12-01T04:17:40;4.90;;;1.70;;
70008;SDS011;59542;37.950;-122.338;2022-12-01T04:20:08;2.70;;;1.50;;
70008;SDS011;59542;37.950;-122.338;2022-12-01T04:22:35;3.65;;;1.80;;
70008;SDS011;59542;37.950;-122.338;2022-12-01T04:25:02;2.55;;;2.05;;
70008;SDS011;59542;37.950;-122.338;2022-12-01T04:27:31;4.07;;;1.48;;
70008;SDS011;59542;37.950;-122.338;2022-12-01T04:29:57;3.72;;;1.23;;
70008;SDS011;59542;37.950;-122.338;2022-12-01T04:32:24;1.60;;;1.10;;
70008;SDS011;59542;37.950;-122.338;2022-12-01T04:34:51;2.85;;;1.33;;
70008;SDS011;59542;37.950;-122.338;2022-12-01T04:37:17;5.82;;;1.85;;
70008;SDS011;59542;37.950;-122.338;2022-12-01T04:39:44;4.88;;;1.90;;
70008;SDS011;59542;37.950;-122.338;2022-12-01T04:42:10;3.03;;;1.75;;
70008;SDS011;59542;37.950;-122.338;2022-12-01T04:44:37;2.95;;;1.67;;
70008;SDS011;59542;37.950;-122.338;2022-12-01T04:47:03;3.92;;;1.83;;
70008;SDS011;59542;37.950;-122.338;2022-12-01T04:49:31;2.95;;;1.30;;
70008;SDS011;59542;37.950;-122.338;2022-12-01T04:51:58;2.53;;;1.65;;
70008;SDS011;59542;37.950;-122.338;2022-12-01T04:54:24;3.75;;;1.70;;
70008;SDS011;59542;37.950;-122.338;2022-12-01T04:56:50;4.65;;;1.63;;
70008;SDS011;59542;37.950;-122.338;2022-12-01T04:59:16;2.97;;;1.65;;
70008;SDS011;59542;37.950;-122.338;2022-12-01T05:01:42;4.55;;;1.67;;
70008;SDS011;59542;37.950;-122.338;2022-12-01T05:04:11;9.80;;;2.47;;
70008;SDS011;59542;37.950;-122.338;2022-12-01T05:06:40;2.20;;;1.52;;
70008;SDS011;59542;37.950;-122.338;2022-12-01T05:09:08;4.25;;;2.08;;
70008;SDS011;59542;37.950;-122.338;2022-12-01T05:11:37;5.40;;;2.17;;
70008;SDS011;59542;37.950;-122.338;2022-12-01T05:14:04;3.38;;;1.67;;
70008;SDS011;59542;37.950;-122.338;2022-12-01T05:16:31;4.00;;;1.67;;
70008;SDS011;59542;37.950;-122.338;2022-12-01T05:18:59;4.55;;;2.00;;
70008;SDS011;59542;37.950;-122.338;2022-12-01T05:21:45;4.38;;;2.03;;
70008;SDS011;59542;37.950;-122.338;2022-12-01T05:24:13;3.85;;;1.98;;
70008;SDS011;59542;37.950;-122.338;2022-12-01T05:26:40;6.18;;;2.13;;
70008;SDS011;59542;37.950;-122.338;2022-12-01T05:29:08;6.60;;;2.00;;
70008;SDS011;59542;37.950;-122.338;2022-12-01T05:31:37;2.55;;;1.60;;
70008;SDS011;59542;37.950;-122.338;2022-12-01T05:34:04;4.40;;;1.70;;
70008;SDS011;59542;37.950;-122.338;2022-12-01T05:36:30;5.57;;;1.98;;
70008;SDS011;59542;37.950;-122.338;2022-12-01T05:38:57;2.95;;;1.80;;
70008;SDS011;59542;37.950;-122.338;2022-12-01T05:41:29;4.88;;;1.90;;
70008;SDS011;59542;37.950;-122.338;2022-12-01T05:43:55;3.58;;;1.25;;
70008;SDS011;59542;37.950;-122.338;2022-12-01T05:46:22;2.97;;;1.63;;
70008;SDS011;59542;37.950;-122.338;2022-12-01T05:48:48;2.00;;;1.20;;
70008;SDS011;59542;37.950;-122.338;2022-12-01T05:51:15;2.35;;;1.30;;
70008;SDS011;59542;37.950;-122.338;2022-12-01T05:53:42;8.48;;;1.48;;
70008;SDS011;59542;37.950;-122.338;2022-12-01T05:56:08;4.38;;;1.23;;
70008;SDS011;59542;37.950;-122.338;2022-12-01T05:58:34;4.25;;;1.42;;
70008;SDS011;59542;37.950;-122.338;2022-12-01T06:01:01;2.03;;;1.30;;
70008;SDS011;59542;37.950;-122.338;2022-12-01T06:03:28;2.03;;;1.08;;
70008;SDS011;59542;37.950;-122.338;2022-12-01T06:05:54;3.78;;;1.52;;
70008;SDS011;59542;37.950;-122.338;2022-12-01T06:08:20;4.57;;;1.48;;
70008;SDS011;59542;37.950;-122.338;2022-12-01T06:10:47;3.13;;;1.45;;
70008;SDS011;59542;37.950;-122.338;2022-12-01T06:13:13;2.72;;;1.40;;
70008;SDS011;59542;37.950;-122.338;2022-12-01T06:15:39;2.38;;;1.13;;
70008;SDS011;59542;37.950;-122.338;2022-12-01T06:18:05;3.00;;;1.20;;
70008;SDS011;59542;37.950;-122.338;2022-12-01T06:20:32;2.42;;;1.42;;
70008;SDS011;59542;37.950;-122.338;2022-12-01T06:22:58;2.35;;;1.27;;
70008;SDS011;59542;37.950;-122.338;2022-12-01T06:25:24;1.85;;;1.25;;
70008;SDS011;59542;37.950;-122.338;2022-12-01T06:27:54;3.17;;;1.30;;
70008;SDS011;59542;37.950;-122.338;2022-12-01T06:30:21;3.42;;;1.50;;
70008;SDS011;59542;37.950;-122.338;2022-12-01T06:32:47;2.80;;;1.48;;
70008;SDS011;59542;37.950;-122.338;2022-12-01T06:35:14;4.28;;;1.90;;
70008;SDS011;59542;37.950;-122.338;2022-12-01T06:37:40;3.78;;;1.42;;
70008;SDS011;59542;37.950;-122.338;2022-12-01T06:40:06;5.00;;;1.45;;
70008;SDS011;59542;37.950;-122.338;2022-12-01T06:42:33;2.15;;;1.10;;
70008;SDS011;59542;37.950;-122.338;2022-12-01T06:44:59;1.95;;;1.05;;
70008;SDS011;59542;37.950;-122.338;2022-12-01T06:47:25;2.33;;;1.50;;
70008;SDS011;59542;37.950;-122.338;2022-12-01T06:49:52;2.90;;;1.30;;
70008;SDS011;59542;37.950;-122.338;2022-12-01T06:52:18;2.65;;;1.30;;
70008;SDS011;59542;37.950;-122.338;2022-12-01T06:54:44;1.75;;;0.95;;
70008;SDS011;59542;37.950;-122.338;2022-12-01T06:57:10;2.03;;;1.10;;
70008;SDS011;59542;37.950;-122.338;2022-12-01T06:59:36;3.42;;;1.10;;
70008;SDS011;59542;37.950;-122.338;2022-12-01T07:02:03;3.95;;;1.38;;
70008;SDS011;59542;37.950;-122.338;2022-12-01T07:04:29;1.60;;;1.25;;
70008;SDS011;59542;37.950;-122.338;2022-12-01T07:06:55;2.13;;;0.90;;
70008;SDS011;59542;37.950;-122.338;2022-12-01T07:09:21;2.47;;;1.05;;
70008;SDS011;59542;37.950;-122.338;2022-12-01T07:11:47;2.20;;;0.98;;
70008;SDS011;59542;37.950;-122.338;2022-12-01T07:14:23;2.22;;;0.90;;
70008;SDS011;59542;37.950;-122.338;2022-12-01T07:16:51;2.33;;;0.90;;
70008;SDS011;59542;37.950;-122.338;2022-12-01T07:19:17;1.65;;;0.90;;
70008;SDS011;59542;37.950;-122.338;2022-12-01T07:21:43;2.10;;;0.90;;
70008;SDS011;59542;37.950;-122.338;2022-12-01T07:24:10;2.65;;;1.20;;
70008;SDS011;59542;37.950;-122.338;2022-12-01T07:26:39;2.92;;;1.23;;
70008;SDS011;59542;37.950;-122.338;2022-12-01T07:29:06;2.22;;;1.00;;
70008;SDS011;59542;37.950;-122.338;2022-12-01T07:31:36;1.75;;;1.13;;
70008;SDS011;59542;37.950;-122.338;2022-12-01T07:34:03;1.88;;;1.08;;
70008;SDS011;59542;37.950;-122.338;2022-12-01T07:36:30;3.10;;;1.10;;
70008;SDS011;59542;37.950;-122.338;2022-12-01T07:38:56;5.20;;;1.30;;
70008;SDS011;59542;37.950;-122.338;2022-12-01T07:41:22;5.22;;;1.10;;
70008;SDS011;59542;37.950;-122.338;2022-12-01T07:43:49;2.95;;;1.20;;
70008;SDS011;59542;37.950;-122.338;2022-12-01T07:46:16;3.10;;;1.40;;
70008;SDS011;59542;37.950;-122.338;2022-12-01T07:48:44;2.25;;;1.30;;
70008;SDS011;59542;37.950;-122.338;2022-12-01T07:51:12;1.42;;;1.02;;
70008;SDS011;59542;37.950;-122.338;2022-12-01T07:53:41;1.77;;;1.00;;
70008;SDS011;59542;37.950;-122.338;2022-12-01T07:56:08;1.98;;;0.70;;
70008;SDS011;59542;37.950;-122.338;2022-12-01T07:58:35;1.50;;;1.02;;
70008;SDS011;59542;37.950;-122.338;2022-12-01T08:01:11;1.73;;;0.90;;
70008;SDS011;59542;37.950;-122.338;2022-12-01T08:03:43;4.82;;;1.10;;
70008;SDS011;59542;37.950;-122.338;2022-12-01T08:06:10;1.67;;;0.98;;
70008;SDS011;59542;37.950;-122.338;2022-12-01T08:08:37;1.52;;;0.80;;
70008;SDS011;59542;37.950;-122.338;2022-12-01T08:11:06;1.77;;;1.00;;
70008;SDS011;59542;37.950;-122.338;2022-12-01T08:13:35;1.60;;;0.70;;
70008;SDS011;59542;37.950;-122.338;2022-12-01T08:16:02;1.75;;;0.88;;
70008;SDS011;59542;37.950;-122.338;2022-12-01T08:18:33;0.80;;;0.63;;
70008;SDS011;59542;37.950;-122.338;2022-12-01T08:21:00;1.73;;;0.77;;
70008;SDS011;59542;37.950;-122.338;2022-12-01T08:23:26;6.13;;;0.82;;
70008;SDS011;59542;37.950;-122.338;2022-12-01T08:25:52;1.85;;;0.70;;
70008;SDS011;59542;37.950;-122.338;2022-12-01T08:28:19;1.40;;;0.70;;
70008;SDS011;59542;37.950;-122.338;2022-12-01T08:30:45;2.35;;;0.90;;
70008;SDS011;59542;37.950;-122.338;2022-12-01T08:33:12;2.83;;;0.70;;
70008;SDS011;59542;37.950;-122.338;2022-12-01T08:35:38;1.95;;;0.80;;
70008;SDS011;59542;37.950;-122.338;2022-12-01T08:38:04;1.00;;;0.80;;
70008;SDS011;59542;37.950;-122.338;2022-12-01T08:40:30;2.67;;;0.93;;
70008;SDS011;59542;37.950;-122.338;2022-12-01T08:42:56;1.52;;;0.68;;
70008;SDS011;59542;37.950;-122.338;2022-12-01T08:45:23;5.13;;;0.80;;
70008;SDS011;59542;37.950;-122.338;2022-12-01T08:47:49;1.75;;;0.65;;
70008;SDS011;59542;37.950;-122.338;2022-12-01T08:50:17;2.45;;;0.73;;
70008;SDS011;59542;37.950;-122.338;2022-12-01T08:52:43;2.75;;;0.93;;
70008;SDS011;59542;37.950;-122.338;2022-12-01T08:55:10;5.15;;;0.93;;
70008;SDS011;59542;37.950;-122.338;2022-12-01T08:57:36;2.83;;;0.85;;
70008;SDS011;59542;37.950;-122.338;2022-12-01T09:00:02;1.58;;;1.10;;
70008;SDS011;59542;37.950;-122.338;2022-12-01T09:02:29;2.50;;;0.85;;
70008;SDS011;59542;37.950;-122.338;2022-12-01T09:04:56;3.00;;;1.02;;
70008;SDS011;59542;37.950;-122.338;2022-12-01T09:07:22;3.30;;;1.00;;
70008;SDS011;59542;37.950;-122.338;2022-12-01T09:09:48;2.72;;;1.10;;
70008;SDS011;59542;37.950;-122.338;2022-12-01T09:12:14;2.30;;;0.90;;
70008;SDS011;59542;37.950;-122.338;2022-12-01T09:14:42;2.22;;;0.82;;
70008;SDS011;59542;37.950;-122.338;2022-12-01T09:17:14;1.80;;;0.82;;
70008;SDS011;59542;37.950;-122.338;2022-12-01T09:19:42;2.38;;;1.20;;
70008;SDS011;59542;37.950;-122.338;2022-12-01T09:22:09;3.00;;;1.10;;
70008;SDS011;59542;37.950;-122.338;2022-12-01T09:24:36;5.05;;;0.85;;
70008;SDS011;59542;37.950;-122.338;2022-12-01T09:27:02;2.92;;;1.10;;
70008;SDS011;59542;37.950;-122.338;2022-12-01T09:29:29;2.20;;;1.20;;
70008;SDS011;59542;37.950;-122.338;2022-12-01T09:31:56;5.15;;;1.40;;
70008;SDS011;59542;37.950;-122.338;2022-12-01T09:34:23;3.30;;;1.27;;
70008;SDS011;59542;37.950;-122.338;2022-12-01T09:36:50;2.80;;;0.70;;
70008;SDS011;59542;37.950;-122.338;2022-12-01T09:39:20;1.30;;;0.90;;
70008;SDS011;59542;37.950;-122.338;2022-12-01T09:47:05;1.83;;;0.95;;
70008;SDS011;59542;37.950;-122.338;2022-12-01T09:49:38;1.33;;;0.80;;
70008;SDS011;59542;37.950;-122.338;2022-12-01T09:52:13;1.85;;;0.93;;
70008;SDS011;59542;37.950;-122.338;2022-12-01T09:54:41;2.28;;;0.90;;
70008;SDS011;59542;37.950;-122.338;2022-12-01T09:57:15;2.78;;;0.75;;
70008;SDS011;59542;37.950;-122.338;2022-12-01T09:59:47;1.45;;;0.70;;
70008;SDS011;59542;37.950;-122.338;2022-12-01T10:02:26;5.18;;;1.38;;
70008;SDS011;59542;37.950;-122.338;2022-12-01T10:05:15;2.88;;;0.90;;
70008;SDS011;59542;37.950;-122.338;2022-12-01T10:10:44;2.15;;;0.93;;
70008;SDS011;59542;37.950;-122.338;2022-12-01T10:15:56;3.53;;;0.82;;
70008;SDS011;59542;37.950;-122.338;2022-12-01T10:27:30;3.47;;;0.70;;
70008;SDS011;59542;37.950;-122.338;2022-12-01T10:30:11;1.38;;;0.85;;
70008;SDS011;59542;37.950;-122.338;2022-12-01T10:32:47;4.00;;;0.90;;
70008;SDS011;59542;37.950;-122.338;2022-12-01T10:35:20;2.72;;;0.80;;
70008;SDS011;59542;37.950;-122.338;2022-12-01T10:37:52;2.80;;;1.00;;
70008;SDS011;59542;37.950;-122.338;2022-12-01T10:40:24;1.08;;;0.68;;
70008;SDS011;59542;37.950;-122.338;2022-12-01T10:42:52;2.15;;;0.80;;
70008;SDS011;59542;37.950;-122.338;2022-12-01T10:45:21;2.03;;;0.93;;
70008;SDS011;59542;37.950;-122.338;2022-12-01T10:50:44;3.00;;;0.87;;
70008;SDS011;59542;37.950;-122.338;2022-12-01T11:04:04;0.95;;;0.60;;
70008;SDS011;59542;37.950;-122.338;2022-12-01T11:06:51;2.08;;;0.70;;
70008;SDS011;59542;37.950;-122.338;2022-12-01T11:09:19;3.67;;;0.98;;
70008;SDS011;59542;37.950;-122.338;2022-12-01T11:11:57;1.65;;;0.50;;
70008;SDS011;59542;37.950;-122.338;2022-12-01T11:16:55;2.30;;;0.80;;
70008;SDS011;59542;37.950;-122.338;2022-12-01T11:19:29;3.95;;;0.60;;
70008;SDS011;59542;37.950;-122.338;2022-12-01T11:24:26;0.93;;;0.70;;
70008;SDS011;59542;37.950;-122.338;2022-12-01T11:27:13;0.90;;;0.70;;
70008;SDS011;59542;37.950;-122.338;2022-12-01T11:29:47;1.60;;;0.40;;
70008;SDS011;59542;37.950;-122.338;2022-12-01T11:32:20;2.22;;;0.50;;
70008;SDS011;59542;37.950;-122.338;2022-12-01T11:34:56;1.63;;;0.70;;
70008;SDS011;59542;37.950;-122.338;2022-12-01T11:37:29;2.35;;;0.50;;
70008;SDS011;59542;37.950;-122.338;2022-12-01T11:40:21;2.55;;;0.50;;
70008;SDS011;59542;37.950;-122.338;2022-12-01T11:42:51;3.63;;;0.80;;
70008;SDS011;59542;37.950;-122.338;2022-12-01T11:52:52;3.10;;;0.57;;
70008;SDS011;59542;37.950;-122.338;2022-12-01T11:55:20;4.05;;;0.82;;
70008;SDS011;59542;37.950;-122.338;2022-12-01T11:57:49;1.00;;;0.75;;
70008;SDS011;59542;37.950;-122.338;2022-12-01T12:00:18;0.77;;;0.52;;
70008;SDS011;59542;37.950;-122.338;2022-12-01T12:11:27;1.40;;;0.60;;
70008;SDS011;59542;37.950;-122.338;2022-12-01T12:17:12;1.98;;;0.57;;
70008;SDS011;59542;37.950;-122.338;2022-12-01T12:22:42;1.33;;;0.53;;
70008;SDS011;59542;37.950;-122.338;2022-12-01T12:28:43;2.97;;;0.52;;
70008;SDS011;59542;37.950;-122.338;2022-12-01T12:33:51;2.90;;;0.60;;
70008;SDS011;59542;37.950;-122.338;2022-12-01T12:39:28;1.40;;;0.60;;
70008;SDS011;59542;37.950;-122.338;2022-12-01T12:42:05;0.98;;;0.43;;
70008;SDS011;59542;37.950;-122.338;2022-12-01T12:44:44;1.90;;;0.63;;
70008;SDS011;59542;37.950;-122.338;2022-12-01T12:49:59;3.38;;;0.90;;
70008;SDS011;59542;37.950;-122.338;2022-12-01T12:52:40;2.92;;;0.50;;
70008;SDS011;59542;37.950;-122.338;2022-12-01T12:57:48;1.65;;;0.50;;
70008;SDS011;59542;37.950;-122.338;2022-12-01T13:00:21;2.67;;;0.60;;
70008;SDS011;59542;37.950;-122.338;2022-12-01T13:06:13;1.23;;;0.70;;
70008;SDS011;59542;37.950;-122.338;2022-12-01T13:09:16;2.05;;;0.70;;
70008;SDS011;59542;37.950;-122.338;2022-12-01T13:12:01;1.98;;;0.50;;
70008;SDS011;59542;37.950;-122.338;2022-12-01T13:14:38;1.10;;;0.57;;
70008;SDS011;59542;37.950;-122.338;2022-12-01T13:17:17;2.55;;;0.70;;
70008;SDS011;59542;37.950;-122.338;2022-12-01T13:19:45;1.20;;;0.70;;
70008;SDS011;59542;37.950;-122.338;2022-12-01T13:22:12;2.90;;;0.68;;
70008;SDS011;59542;37.950;-122.338;2022-12-01T13:24:41;2.60;;;0.47;;
70008;SDS011;59542;37.950;-122.338;2022-12-01T13:29:46;1.42;;;0.63;;
70008;SDS011;59542;37.950;-122.338;2022-12-01T13:32:35;2.30;;;0.77;;
70008;SDS011;59542;37.950;-122.338;2022-12-01T13:35:03;3.17;;;0.80;;
70008;SDS011;59542;37.950;-122.338;2022-12-01T13:37:44;5.43;;;0.82;;
70008;SDS011;59542;37.950;-122.338;2022-12-01T13:40:32;2.03;;;0.55;;
70008;SDS011;59542;37.950;-122.338;2022-12-01T13:45:33;2.78;;;0.80;;
70008;SDS011;59542;37.950;-122.338;2022-12-01T13:48:01;2.72;;;0.75;;
70008;SDS011;59542;37.950;-122.338;2022-12-01T13:53:12;1.98;;;0.50;;
70008;SDS011;59542;37.950;-122.338;2022-12-01T13:55:58;1.58;;;0.57;;
70008;SDS011;59542;37.950;-122.338;2022-12-01T14:03:58;1.65;;;0.85;;
70008;SDS011;59542;37.950;-122.338;2022-12-01T14:12:00;2.67;;;0.77;;
70008;SDS011;59542;37.950;-122.338;2022-12-01T14:14:33;2.20;;;0.68;;
70008;SDS011;59542;37.950;-122.338;2022-12-01T14:17:03;1.25;;;0.40;;
70008;SDS011;59542;37.950;-122.338;2022-12-01T14:25:37;2.70;;;1.00;;
70008;SDS011;59542;37.950;-122.338;2022-12-01T14:28:11;1.52;;;0.60;;
70008;SDS011;59542;37.950;-122.338;2022-12-01T14:36:20;1.17;;;0.52;;
70008;SDS011;59542;37.950;-122.338;2022-12-01T14:41:44;2.45;;;1.05;;
70008;SDS011;59542;37.950;-122.338;2022-12-01T14:46:50;1.92;;;0.52;;
70008;SDS011;59542;37.950;-122.338;2022-12-01T14:51:51;4.28;;;0.60;;
70008;SDS011;59542;37.950;-122.338;2022-12-01T14:54:26;1.55;;;0.75;;
70008;SDS011;59542;37.950;-122.338;2022-12-01T14:56:56;1.90;;;0.63;;
70008;SDS011;59542;37.950;-122.338;2022-12-01T14:59:26;3.50;;;0.73;;
70008;SDS011;59542;37.950;-122.338;2022-12-01T15:01:54;1.67;;;0.60;;
70008;SDS011;59542;37.950;-122.338;2022-12-01T15:04:24;4.43;;;0.80;;
70008;SDS011;59542;37.950;-122.338;2022-12-01T15:06:54;4.72;;;0.70;;
70008;SDS011;59542;37.950;-122.338;2022-12-01T15:09:21;5.18;;;0.70;;
70008;SDS011;59542;37.950;-122.338;2022-12-01T15:11:50;3.42;;;0.85;;
70008;SDS011;59542;37.950;-122.338;2022-12-01T15:14:21;1.42;;;0.52;;
70008;SDS011;59542;37.950;-122.338;2022-12-01T15:16:48;4.05;;;0.77;;
70008;SDS011;59542;37.950;-122.338;2022-12-01T15:22:15;2.25;;;0.82;;
70008;SDS011;59542;37.950;-122.338;2022-12-01T15:24:42;3.85;;;1.00;;
70008;SDS011;59542;37.950;-122.338;2022-12-01T15:27:26;3.08;;;1.00;;
70008;SDS011;59542;37.950;-122.338;2022-12-01T15:29:54;2.53;;;0.95;;
70008;SDS011;59542;37.950;-122.338;2022-12-01T15:32:23;5.57;;;1.10;;
70008;SDS011;59542;37.950;-122.338;2022-12-01T15:34:52;1.80;;;0.90;;
70008;SDS011;59542;37.950;-122.338;2022-12-01T15:37:21;3.25;;;0.90;;
70008;SDS011;59542;37.950;-122.338;2022-12-01T15:42:28;2.05;;;1.05;;
70008;SDS011;59542;37.950;-122.338;2022-12-01T15:45:01;1.80;;;1.00;;
70008;SDS011;59542;37.950;-122.338;2022-12-01T15:52:58;6.07;;;1.23;;
70008;SDS011;59542;37.950;-122.338;2022-12-01T15:55:35;3.70;;;0.82;;
70008;SDS011;59542;37.950;-122.338;2022-12-01T15:58:06;5.27;;;1.00;;
70008;SDS011;59542;37.950;-122.338;2022-12-01T16:00:39;2.92;;;1.20;;
70008;SDS011;59542;37.950;-122.338;2022-12-01T16:03:05;5.70;;;1.30;;
70008;SDS011;59542;37.950;-122.338;2022-12-01T16:05:38;2.28;;;0.95;;
70008;SDS011;59542;37.950;-122.338;2022-12-01T16:08:15;2.80;;;1.38;;
70008;SDS011;59542;37.950;-122.338;2022-12-01T16:10:44;3.78;;;1.20;;
70008;SDS011;59542;37.950;-122.338;2022-12-01T16:18:52;3.33;;;1.10;;
70008;SDS011;59542;37.950;-122.338;2022-12-01T16:21:31;3.92;;;1.30;;
70008;SDS011;59542;37.950;-122.338;2022-12-01T16:24:09;3.85;;;1.25;;
70008;SDS011;59542;37.950;-122.338;2022-12-01T16:26:45;3.45;;;1.10;;
70008;SDS011;59542;37.950;-122.338;2022-12-01T16:29:43;6.13;;;1.00;;
70008;SDS011;59542;37.950;-122.338;2022-12-01T16:32:21;6.75;;;1.60;;
70008;SDS011;59542;37.950;-122.338;2022-12-01T16:34:52;3.85;;;1.48;;
70008;SDS011;59542;37.950;-122.338;2022-12-01T16:37:18;6.05;;;1.70;;
70008;SDS011;59542;37.950;-122.338;2022-12-01T16:39:46;5.85;;;1.70;;
70008;SDS011;59542;37.950;-122.338;2022-12-01T16:42:13;8.50;;;1.90;;
70008;SDS011;59542;37.950;-122.338;2022-12-01T16:44:41;5.43;;;1.80;;
70008;SDS011;59542;37.950;-122.338;2022-12-01T16:47:14;8.50;;;2.00;;
70008;SDS011;59542;37.950;-122.338;2022-12-01T16:49:42;4.88;;;1.40;;
70008;SDS011;59542;37.950;-122.338;2022-12-01T16:52:08;3.67;;;0.70;;
70008;SDS011;59542;37.950;-122.338;2022-12-01T16:54:35;3.95;;;1.00;;
70008;SDS011;59542;37.950;-122.338;2022-12-01T16:57:01;3.60;;;0.90;;
70008;SDS011;59542;37.950;-122.338;2022-12-01T16:59:27;1.15;;;0.70;;
70008;SDS011;59542;37.950;-122.338;2022-12-01T17:01:55;3.28;;;1.05;;
70008;SDS011;59542;37.950;-122.338;2022-12-01T17:04:21;4.13;;;1.20;;
70008;SDS011;59542;37.950;-122.338;2022-12-01T17:06:47;5.18;;;1.30;;
70008;SDS011;59542;37.950;-122.338;2022-12-01T17:09:13;3.95;;;0.95;;
70008;SDS011;59542;37.950;-122.338;2022-12-01T17:11:40;3.40;;;0.70;;
70008;SDS011;59542;37.950;-122.338;2022-12-01T17:14:06;3.88;;;1.00;;
70008;SDS011;59542;37.950;-122.338;2022-12-01T17:16:32;1.50;;;0.40;;
70008;SDS011;59542;37.950;-122.338;2022-12-01T17:18:59;2.15;;;0.55;;
70008;SDS011;59542;37.950;-122.338;2022-12-01T17:21:25;4.60;;;0.70;;
70008;SDS011;59542;37.950;-122.338;2022-12-01T17:23:52;0.77;;;0.50;;
70008;SDS011;59542;37.950;-122.338;2022-12-01T17:26:19;2.97;;;0.60;;